createdAt,value
2022-10-02T00:01:51.072Z,100.00
2022-10-02T00:04:33.828Z,99.35
2022-10-02T00:07:03.847Z,99.56
2022-10-02T00:09:33.858Z,100.00
2022-10-02T00:12:00.982Z,100.00
2022-10-02T00:14:31.703Z,100.00
2022-10-02T00:17:00.353Z,99.47
2022-10-02T00:19:27.441Z,99.78
2022-10-02T00:21:59.989Z,99.56
2022-10-02T00:24:28.913Z,99.39
2022-10-02T00:26:59.254Z,99.38
2022-10-02T00:29:33.097Z,99.42
2022-10-02T00:32:18.238Z,98.79
2022-10-02T00:34:44.650Z,99.57
2022-10-02T00:37:11.054Z,99.56
2022-10-02T00:39:44.969Z,99.86
2022-10-02T00:42:25.754Z,100.00
2022-10-02T00:44:58.660Z,99.74
2022-10-02T00:47:41.986Z,99.17
2022-10-02T00:50:18.111Z,98.06
2022-10-02T00:52:44.545Z,97.94
2022-10-02T00:55:27.418Z,99.40
2022-10-02T00:58:02.965Z,98.30
2022-10-02T01:00:29.505Z,98.44
2022-10-02T01:03:10.274Z,97.44
2022-10-02T01:05:37.780Z,97.51
2022-10-02T01:08:04.667Z,97.24
2022-10-02T01:10:31.518Z,96.78
2022-10-02T01:12:58.671Z,97.56
2022-10-02T01:15:48.342Z,97.51
2022-10-02T01:18:14.957Z,98.42
2022-10-02T01:20:46.609Z,99.02
2022-10-02T01:23:32.240Z,98.26
2022-10-02T01:25:58.882Z,97.42
2022-10-02T01:28:26.162Z,97.20
2022-10-02T01:30:55.427Z,96.97
2022-10-02T01:33:23.072Z,97.62
2022-10-02T01:35:49.908Z,96.65
2022-10-02T01:38:18.623Z,97.59
2022-10-02T01:40:45.259Z,97.98
2022-10-02T01:43:17.003Z,98.79
2022-10-02T01:45:59.003Z,98.12
2022-10-02T01:48:43.792Z,98.06
2022-10-02T01:51:10.213Z,97.23
2022-10-02T01:53:45.321Z,97.49
2022-10-02T01:56:23.989Z,97.31
2022-10-02T01:59:05.200Z,97.58
2022-10-02T02:01:40.663Z,97.79
2022-10-02T02:04:24.498Z,96.86
2022-10-02T02:07:10.278Z,97.06
2022-10-02T02:09:36.653Z,98.04
2022-10-02T02:12:09.286Z,100.00
2022-10-02T02:14:37.813Z,99.18
2022-10-02T02:17:36.689Z,97.78
2022-10-02T02:20:07.229Z,97.99
2022-10-02T02:22:39.006Z,97.36
2022-10-02T02:25:05.593Z,96.05
2022-10-02T02:27:35.726Z,95.87
2022-10-02T02:30:05.998Z,95.56
2022-10-02T02:32:35.593Z,95.92
2022-10-02T02:35:05.507Z,96.10
2022-10-02T02:37:33.998Z,96.01
2022-10-02T02:40:06.390Z,95.77
2022-10-02T02:42:37.339Z,97.42
2022-10-02T02:45:12.563Z,98.28
2022-10-02T02:47:42.185Z,98.84
2022-10-02T02:50:21.687Z,97.43
2022-10-02T02:52:52.567Z,96.01
2022-10-02T02:55:20.549Z,95.47
2022-10-02T02:57:54.367Z,94.43
2022-10-02T03:00:22.794Z,95.06
2022-10-02T03:02:50.610Z,95.58
2022-10-02T03:05:18.823Z,94.22
2022-10-02T03:07:53.909Z,95.97
2022-10-02T03:10:29.358Z,95.14
2022-10-02T03:13:07.915Z,94.84
2022-10-02T03:15:53.363Z,95.40
2022-10-02T03:18:25.985Z,95.19
2022-10-02T03:20:52.377Z,94.85
2022-10-02T03:23:29.779Z,95.02
2022-10-02T03:26:16.425Z,93.48
2022-10-02T03:28:56.006Z,92.48
2022-10-02T03:31:24.908Z,92.99
2022-10-02T03:33:53.655Z,92.31
2022-10-02T03:36:21.758Z,91.68
2022-10-02T03:39:00.695Z,91.35
2022-10-02T03:41:34.886Z,90.55
2022-10-02T03:44:01.491Z,90.82
2022-10-02T03:46:27.956Z,89.81
2022-10-02T03:48:56.519Z,88.76
2022-10-02T03:51:23.818Z,88.45
2022-10-02T03:53:50.404Z,90.08
2022-10-02T03:56:22.533Z,91.27
2022-10-02T03:58:51.643Z,91.41
2022-10-02T04:01:26.573Z,91.17
2022-10-02T04:03:56.271Z,91.86
2022-10-02T04:06:27.980Z,92.18
2022-10-02T04:08:58.077Z,90.30
2022-10-02T04:11:27.481Z,90.09
2022-10-02T04:13:59.246Z,91.87
2022-10-02T04:16:32.048Z,92.54
2022-10-02T04:18:59.770Z,92.05
2022-10-02T04:21:34.272Z,94.63
2022-10-02T04:24:09.649Z,96.51
2022-10-02T04:26:39.893Z,97.00
2022-10-02T04:29:11.610Z,95.94
2022-10-02T04:31:38.070Z,94.30
2022-10-02T04:34:07.519Z,95.15
2022-10-02T04:36:46.815Z,94.97
2022-10-02T04:39:16.003Z,95.05
2022-10-02T04:41:48.566Z,94.62
2022-10-02T04:44:35.293Z,94.42
2022-10-02T04:47:14.654Z,95.16
2022-10-02T04:49:41.150Z,94.86
2022-10-02T04:52:19.661Z,94.89
2022-10-02T04:55:04.274Z,94.12
2022-10-02T04:57:47.769Z,96.76
2022-10-02T05:00:22.178Z,97.37
2022-10-02T05:02:48.666Z,96.65
2022-10-02T05:05:21.208Z,95.45
2022-10-02T05:07:50.695Z,95.12
2022-10-02T05:10:35.474Z,94.58
2022-10-02T05:13:07.850Z,94.78
2022-10-02T05:15:37.435Z,95.00
2022-10-02T05:18:12.513Z,96.10
2022-10-02T05:20:56.438Z,96.55
2022-10-02T05:23:29.179Z,96.74
2022-10-02T05:26:18.046Z,95.94
2022-10-02T05:28:53.433Z,96.71
2022-10-02T05:31:30.252Z,95.87
2022-10-02T05:34:05.962Z,96.26
2022-10-02T05:36:35.640Z,95.68
2022-10-02T05:39:04.870Z,96.59
2022-10-02T05:41:34.034Z,96.47
2022-10-02T05:44:04.340Z,96.68
2022-10-02T05:46:34.246Z,96.05
2022-10-02T05:49:06.337Z,96.14
2022-10-02T05:51:47.327Z,95.09
2022-10-02T05:54:19.872Z,95.50
2022-10-02T05:57:02.329Z,95.87
2022-10-02T05:59:33.898Z,96.43
2022-10-02T06:02:03.488Z,96.36
2022-10-02T06:04:39.637Z,95.92
2022-10-02T06:07:10.436Z,96.41
2022-10-02T06:09:40.990Z,95.74
2022-10-02T06:12:11.159Z,92.04
2022-10-02T06:14:49.857Z,93.94
2022-10-02T06:17:31.626Z,91.98
2022-10-02T06:20:03.009Z,91.22
2022-10-02T06:22:42.008Z,89.18
2022-10-02T06:25:08.636Z,88.79
2022-10-02T06:27:43.128Z,88.78
2022-10-02T06:30:12.431Z,89.48
2022-10-02T06:32:41.998Z,88.38
2022-10-02T06:35:12.575Z,88.17
2022-10-02T06:37:51.703Z,87.94
2022-10-02T06:40:42.832Z,86.91
2022-10-02T06:43:36.584Z,86.66
2022-10-02T06:46:22.857Z,87.89
2022-10-02T06:48:55.236Z,87.21
2022-10-02T06:51:40.712Z,84.39
2022-10-02T06:54:17.058Z,83.16
2022-10-02T06:57:02.459Z,82.09
2022-10-02T06:59:50.666Z,77.14
2022-10-02T07:02:28.600Z,74.92
2022-10-02T07:05:13.954Z,73.81
2022-10-02T07:07:52.513Z,70.85
2022-10-02T07:10:39.308Z,70.33
2022-10-02T07:13:24.435Z,66.34
2022-10-02T07:16:08.496Z,62.99
2022-10-02T07:18:37.745Z,64.44
2022-10-02T07:21:07.709Z,66.00
2022-10-02T07:23:34.980Z,67.83
2022-10-02T07:26:01.876Z,66.44
2022-10-02T07:28:45.360Z,66.56
2022-10-02T07:31:30.546Z,66.13
2022-10-02T07:34:15.592Z,66.69
2022-10-02T07:36:48.201Z,65.67
2022-10-02T07:39:31.326Z,65.26
2022-10-02T07:42:00.770Z,64.30
2022-10-02T07:44:27.578Z,62.45
2022-10-02T07:47:13.942Z,60.29
2022-10-02T07:49:49.637Z,59.62
2022-10-02T07:52:19.053Z,56.24
2022-10-02T07:55:04.289Z,54.69
2022-10-02T07:57:49.573Z,56.09
2022-10-02T08:00:17.558Z,52.77
2022-10-02T08:02:44.149Z,53.83
2022-10-02T08:05:21.887Z,53.16
2022-10-02T08:07:50.787Z,51.94
2022-10-02T08:10:24.867Z,50.60
2022-10-02T08:12:57.822Z,50.05
2022-10-02T08:15:25.210Z,48.81
2022-10-02T08:17:54.092Z,48.65
2022-10-02T08:20:20.505Z,48.32
2022-10-02T08:22:50.905Z,49.23
2022-10-02T08:25:20.966Z,50.56
2022-10-02T08:27:56.666Z,48.64
2022-10-02T08:30:23.181Z,47.56
2022-10-02T08:32:49.671Z,45.47
2022-10-02T08:35:17.138Z,45.06
2022-10-02T08:37:43.534Z,47.52
2022-10-02T08:40:29.403Z,47.01
2022-10-02T08:43:17.166Z,45.37
2022-10-02T08:45:43.596Z,47.53
2022-10-02T08:48:14.934Z,46.36
2022-10-02T08:51:00.015Z,48.10
2022-10-02T08:53:32.450Z,48.59
2022-10-02T08:56:20.171Z,47.64
2022-10-02T08:58:46.867Z,47.79
2022-10-02T09:01:39.202Z,47.85
2022-10-02T09:04:24.023Z,46.82
2022-10-02T09:07:09.496Z,45.72
2022-10-02T09:09:50.858Z,47.69
2022-10-02T09:12:17.269Z,50.94
2022-10-02T09:14:58.077Z,51.05
2022-10-02T09:17:45.745Z,50.33
2022-10-02T09:20:28.405Z,53.08
2022-10-02T09:22:58.881Z,52.85
2022-10-02T09:25:34.853Z,51.68
2022-10-02T09:28:07.408Z,51.31
2022-10-02T09:30:47.882Z,51.99
2022-10-02T09:33:29.586Z,53.08
2022-10-02T09:36:24.726Z,53.58
2022-10-02T09:39:15.347Z,53.26
2022-10-02T09:42:08.750Z,52.01
2022-10-02T09:44:48.848Z,52.05
2022-10-02T09:47:36.954Z,52.40
2022-10-02T09:50:22.356Z,51.84
2022-10-02T09:52:52.594Z,52.76
2022-10-02T09:55:37.969Z,53.72
2022-10-02T09:58:18.510Z,52.81
2022-10-02T10:01:02.049Z,54.66
2022-10-02T10:03:47.069Z,54.15
2022-10-02T10:06:22.714Z,55.19
2022-10-02T10:09:01.378Z,56.58
2022-10-02T10:11:29.315Z,54.79
2022-10-02T10:14:10.990Z,54.15
2022-10-02T10:16:38.240Z,56.35
2022-10-02T10:19:04.800Z,55.48
2022-10-02T10:21:50.113Z,68.49
2022-10-02T10:24:35.354Z,67.92
2022-10-02T10:27:20.781Z,68.08
2022-10-02T10:30:06.075Z,68.59
2022-10-02T10:32:56.977Z,68.37
2022-10-02T10:35:33.813Z,68.45
2022-10-02T10:38:22.042Z,67.92
2022-10-02T10:41:09.361Z,70.37
2022-10-02T10:43:51.346Z,69.59
2022-10-02T10:46:31.173Z,68.22
2022-10-02T10:49:16.380Z,72.46
2022-10-02T10:51:59.378Z,74.30
2022-10-02T10:54:55.126Z,76.82
2022-10-02T10:57:33.159Z,77.88
2022-10-02T11:00:20.034Z,78.26
2022-10-02T11:02:54.790Z,76.96
2022-10-02T11:05:22.268Z,77.19
2022-10-02T11:07:48.689Z,75.81
2022-10-02T11:10:21.437Z,75.93
2022-10-02T11:12:54.018Z,78.25
2022-10-02T11:15:20.568Z,77.44
2022-10-02T11:17:49.825Z,76.67
2022-10-02T11:20:35.025Z,74.12
2022-10-02T11:23:10.750Z,70.09
2022-10-02T11:25:43.406Z,69.03
2022-10-02T11:28:12.866Z,72.39
2022-10-02T11:30:41.841Z,70.26
2022-10-02T11:33:18.466Z,70.15
2022-10-02T11:36:04.230Z,68.82
2022-10-02T11:38:50.070Z,67.82
2022-10-02T11:41:32.070Z,68.70
2022-10-02T11:44:00.367Z,67.79
2022-10-02T11:46:40.937Z,67.11
2022-10-02T11:49:07.861Z,64.46
2022-10-02T11:51:46.334Z,65.48
2022-10-02T11:54:38.946Z,62.28
2022-10-02T11:57:17.517Z,62.21
2022-10-02T11:59:50.378Z,63.14
2022-10-02T12:02:16.975Z,61.40
2022-10-02T12:04:52.674Z,60.66
2022-10-02T12:07:25.314Z,60.84
2022-10-02T12:09:54.845Z,60.75
2022-10-02T12:12:27.694Z,58.95
2022-10-02T12:15:02.187Z,55.82
2022-10-02T12:17:44.219Z,55.80
2022-10-02T12:20:48.047Z,55.49
2022-10-02T12:23:39.294Z,55.74
2022-10-02T12:26:41.342Z,56.24
2022-10-02T12:29:30.930Z,55.83
2022-10-02T12:32:00.382Z,55.88
2022-10-02T12:34:40.353Z,55.96
2022-10-02T12:37:22.884Z,55.25
2022-10-02T12:40:04.541Z,54.38
2022-10-02T12:42:41.182Z,59.67
2022-10-02T12:45:11.551Z,59.79
2022-10-02T12:47:41.455Z,59.96
2022-10-02T12:50:13.846Z,61.86
2022-10-02T12:52:59.350Z,61.10
2022-10-02T12:55:43.762Z,57.06
2022-10-02T12:58:25.561Z,58.83
2022-10-02T13:00:58.149Z,58.53
2022-10-02T13:03:43.503Z,58.52
2022-10-02T13:06:26.870Z,60.73
2022-10-02T13:08:56.079Z,60.31
2022-10-02T13:11:25.656Z,58.41
2022-10-02T13:14:02.174Z,59.70
2022-10-02T13:16:31.616Z,61.01
2022-10-02T13:19:17.209Z,60.69
2022-10-02T13:22:00.999Z,60.68
2022-10-02T13:24:33.551Z,58.81
2022-10-02T13:27:18.712Z,57.70
2022-10-02T13:29:45.171Z,57.35
2022-10-02T13:32:14.890Z,59.91
2022-10-02T13:34:59.994Z,59.01
2022-10-02T13:37:41.859Z,58.45
2022-10-02T13:40:18.477Z,58.33
2022-10-02T13:42:44.999Z,59.95
2022-10-02T13:45:11.467Z,61.60
2022-10-02T13:47:40.298Z,59.43
2022-10-02T13:50:06.696Z,59.44
2022-10-02T13:52:53.828Z,60.46
2022-10-02T13:55:20.491Z,58.69
2022-10-02T13:57:53.074Z,54.69
2022-10-02T14:00:37.906Z,53.44
2022-10-02T14:03:07.523Z,54.66
2022-10-02T14:06:09.398Z,54.23
2022-10-02T14:08:54.163Z,55.63
2022-10-02T14:11:29.035Z,53.45
2022-10-02T14:14:05.153Z,48.70
2022-10-02T14:16:31.639Z,45.52
2022-10-02T14:19:04.047Z,48.97
2022-10-02T14:21:33.672Z,48.63
2022-10-02T14:24:00.099Z,50.72
2022-10-02T14:26:32.371Z,50.26
2022-10-02T14:29:25.273Z,51.00
2022-10-02T14:32:08.462Z,51.43
2022-10-02T14:34:44.357Z,48.14
2022-10-02T14:37:29.886Z,47.37
2022-10-02T14:39:57.707Z,48.16
2022-10-02T14:42:30.264Z,47.42
2022-10-02T14:45:21.590Z,48.94
2022-10-02T14:48:10.048Z,46.51
2022-10-02T14:50:36.484Z,45.85
2022-10-02T14:53:26.191Z,45.53
2022-10-02T14:56:13.248Z,48.15
2022-10-02T14:58:45.929Z,50.58
2022-10-02T15:01:26.999Z,49.61
2022-10-02T15:04:05.824Z,49.94
2022-10-02T15:06:40.870Z,51.70
2022-10-02T15:09:13.937Z,57.25
2022-10-02T15:11:59.396Z,61.65
2022-10-02T15:14:32.014Z,64.36
2022-10-02T15:17:18.734Z,62.57
2022-10-02T15:19:50.005Z,62.70
2022-10-02T15:22:19.732Z,64.26
2022-10-02T15:24:48.469Z,68.08
2022-10-02T15:27:14.886Z,72.08
2022-10-02T15:29:41.966Z,72.82
2022-10-02T15:32:28.245Z,70.40
2022-10-02T15:35:23.940Z,71.73
2022-10-02T15:38:10.094Z,73.33
2022-10-02T15:40:42.716Z,74.58
2022-10-02T15:43:12.137Z,74.09
2022-10-02T15:45:41.636Z,72.64
2022-10-02T15:48:10.081Z,73.55
2022-10-02T15:50:53.194Z,72.68
2022-10-02T15:53:39.010Z,73.58
2022-10-02T15:56:05.411Z,77.64
2022-10-02T15:58:31.805Z,78.45
2022-10-02T16:01:04.311Z,79.07
2022-10-02T16:03:53.389Z,79.80
2022-10-02T16:06:28.096Z,81.69
2022-10-02T16:09:13.135Z,81.32
2022-10-02T16:11:45.682Z,80.48
2022-10-02T16:14:12.111Z,82.39
2022-10-02T16:16:42.148Z,81.50
2022-10-02T16:19:28.390Z,80.43
2022-10-02T16:22:17.792Z,84.11
2022-10-02T16:24:58.251Z,86.25
2022-10-02T16:27:46.674Z,86.06
2022-10-02T16:30:15.332Z,88.19
2022-10-02T16:32:53.709Z,87.61
2022-10-02T16:35:42.788Z,89.66
2022-10-02T16:38:28.867Z,89.31
2022-10-02T16:40:57.233Z,89.38
2022-10-02T16:43:39.766Z,88.00
2022-10-02T16:46:18.686Z,90.33
2022-10-02T16:48:51.838Z,91.90
2022-10-02T16:51:37.004Z,92.76
2022-10-02T16:54:15.361Z,92.99
2022-10-02T16:56:53.910Z,93.30
2022-10-02T16:59:25.107Z,92.20
2022-10-02T17:02:18.119Z,91.65
2022-10-02T17:04:49.050Z,94.25
2022-10-02T17:07:15.452Z,96.11
2022-10-02T17:09:50.644Z,96.55
2022-10-02T17:12:44.200Z,97.09
2022-10-02T17:15:34.271Z,96.97
2022-10-02T17:18:00.682Z,96.96
2022-10-02T17:20:29.503Z,97.78
2022-10-02T17:23:16.643Z,99.20
2022-10-02T17:25:51.929Z,99.86
2022-10-02T17:28:19.365Z,99.43
2022-10-02T17:30:54.887Z,99.71
2022-10-02T17:33:22.209Z,99.58
2022-10-02T17:35:56.184Z,99.77
2022-10-02T17:38:25.611Z,99.50
2022-10-02T17:41:10.927Z,99.50
2022-10-02T17:43:59.508Z,98.96
2022-10-02T17:46:58.173Z,100.00
2022-10-02T17:49:27.680Z,98.97
2022-10-02T17:52:32.992Z,98.22
2022-10-02T17:55:17.949Z,99.23
2022-10-02T17:57:47.145Z,98.24
2022-10-02T18:00:16.518Z,98.90
2022-10-02T18:02:58.833Z,99.01
2022-10-02T18:05:41.874Z,98.76
2022-10-02T18:08:30.474Z,98.86
2022-10-02T18:11:05.813Z,99.04
2022-10-02T18:13:50.753Z,98.14
2022-10-02T18:16:36.055Z,97.04
2022-10-02T18:19:21.033Z,98.33
2022-10-02T18:21:50.475Z,98.38
2022-10-02T18:24:35.750Z,99.01
2022-10-02T18:27:13.319Z,98.83
2022-10-02T18:29:58.401Z,99.70
2022-10-02T18:32:26.444Z,99.51
2022-10-02T18:35:11.218Z,99.01
2022-10-02T18:37:54.537Z,99.36
2022-10-02T18:40:30.260Z,99.51
2022-10-02T18:43:21.062Z,100.00
2022-10-02T18:46:00.220Z,98.53
2022-10-02T18:48:35.586Z,99.17
2022-10-02T18:51:19.734Z,99.49
2022-10-02T18:53:58.302Z,98.57
2022-10-02T18:56:41.181Z,99.08
2022-10-02T18:59:13.696Z,99.11
2022-10-02T19:01:50.597Z,98.86
2022-10-02T19:04:20.086Z,99.38
2022-10-02T19:06:55.676Z,98.93
2022-10-02T19:09:25.846Z,99.09
2022-10-02T19:11:52.833Z,98.39
2022-10-02T19:14:30.075Z,98.36
2022-10-02T19:17:00.511Z,97.91
2022-10-02T19:19:28.003Z,98.40
2022-10-02T19:21:59.111Z,98.85
2022-10-02T19:24:28.552Z,97.62
2022-10-02T19:26:57.655Z,98.25
2022-10-02T19:29:36.800Z,99.91
2022-10-02T19:32:18.442Z,99.45
2022-10-02T19:34:47.606Z,100.00
2022-10-02T19:37:16.221Z,100.00
2022-10-02T19:39:49.553Z,100.00
2022-10-02T19:42:18.187Z,100.00
2022-10-02T19:44:46.911Z,100.00
2022-10-02T19:47:17.045Z,99.79
2022-10-02T19:49:46.628Z,100.00
2022-10-02T19:52:31.514Z,100.00
2022-10-02T19:54:59.097Z,100.00
2022-10-02T19:57:29.062Z,99.65
2022-10-02T19:59:55.559Z,99.90
2022-10-02T20:02:24.820Z,99.49
2022-10-02T20:04:53.170Z,98.40
2022-10-02T20:07:20.938Z,99.00
2022-10-02T20:09:50.672Z,99.47
2022-10-02T20:12:20.027Z,100.00
2022-10-02T20:14:52.051Z,100.00
2022-10-02T20:17:19.339Z,99.84
2022-10-02T20:19:54.005Z,100.00
2022-10-02T20:22:35.897Z,100.00
2022-10-02T20:25:06.457Z,99.94
2022-10-02T20:27:41.126Z,100.00
2022-10-02T20:30:15.346Z,100.00
2022-10-02T20:32:46.486Z,100.00
2022-10-02T20:35:18.828Z,100.00
2022-10-02T20:37:46.325Z,100.00
2022-10-02T20:40:15.402Z,100.00
2022-10-02T20:42:50.929Z,100.00
2022-10-02T20:45:18.131Z,100.00
2022-10-02T20:47:44.527Z,100.00
2022-10-02T20:50:18.013Z,100.00
2022-10-02T20:53:03.050Z,100.00
2022-10-02T20:55:53.334Z,100.00
2022-10-02T20:58:35.488Z,100.00
2022-10-02T21:01:08.138Z,100.00
2022-10-02T21:03:53.279Z,100.00
2022-10-02T21:06:38.895Z,100.00
2022-10-02T21:09:08.559Z,100.00
2022-10-02T21:11:38.011Z,100.00
2022-10-02T21:14:23.329Z,100.00
2022-10-02T21:17:15.999Z,100.00
2022-10-02T21:20:00.830Z,100.00
2022-10-02T21:22:37.244Z,100.00
2022-10-02T21:25:22.054Z,100.00
2022-10-02T21:28:07.230Z,100.00
2022-10-02T21:30:52.350Z,100.00
2022-10-02T21:33:26.880Z,100.00
2022-10-02T21:35:54.154Z,100.00
2022-10-02T21:38:41.194Z,100.00
2022-10-02T21:41:23.005Z,100.00
2022-10-02T21:44:01.778Z,100.00
2022-10-02T21:46:31.675Z,100.00
2022-10-02T21:49:04.742Z,100.00
2022-10-02T21:51:50.076Z,100.00
2022-10-02T21:54:19.870Z,100.00
2022-10-02T21:56:53.242Z,100.00
2022-10-02T21:59:19.740Z,100.00
2022-10-02T22:02:11.575Z,100.00
2022-10-02T22:04:46.861Z,100.00
2022-10-02T22:07:21.568Z,100.00
2022-10-02T22:09:57.206Z,100.00
2022-10-02T22:12:30.638Z,100.00
2022-10-02T22:15:16.026Z,100.00
2022-10-02T22:17:54.378Z,100.00
2022-10-02T22:20:20.755Z,100.00
2022-10-02T22:23:05.561Z,100.00
2022-10-02T22:25:32.148Z,100.00
2022-10-02T22:28:09.878Z,100.00
2022-10-02T22:30:59.899Z,100.00
2022-10-02T22:33:44.951Z,100.00
2022-10-02T22:36:30.274Z,100.00
2022-10-02T22:39:10.939Z,100.00
2022-10-02T22:41:40.756Z,100.00
2022-10-02T22:44:07.574Z,100.00
2022-10-02T22:46:57.517Z,100.00
2022-10-02T22:49:36.195Z,100.00
2022-10-02T22:52:21.614Z,100.00
2022-10-02T22:54:57.182Z,100.00
2022-10-02T22:57:31.104Z,100.00
2022-10-02T23:00:03.572Z,100.00
2022-10-02T23:02:42.191Z,100.00
2022-10-02T23:05:15.806Z,100.00
2022-10-02T23:07:48.226Z,100.00
2022-10-02T23:10:18.845Z,100.00
2022-10-02T23:12:53.644Z,100.00
2022-10-02T23:15:26.046Z,100.00
2022-10-02T23:17:59.369Z,100.00
2022-10-02T23:20:42.607Z,100.00
2022-10-02T23:23:35.733Z,100.00
2022-10-02T23:26:16.596Z,100.00
2022-10-02T23:28:53.108Z,100.00
2022-10-02T23:31:22.967Z,100.00
2022-10-02T23:33:55.969Z,100.00
2022-10-02T23:36:35.249Z,99.93
2022-10-02T23:39:20.074Z,100.00
2022-10-02T23:41:48.034Z,100.00
2022-10-02T23:44:20.457Z,100.00
2022-10-02T23:46:50.022Z,100.00
2022-10-02T23:49:22.246Z,100.00
2022-10-02T23:52:05.041Z,100.00
2022-10-02T23:54:34.636Z,100.00
2022-10-02T23:57:07.049Z,100.00
2022-10-02T23:59:42.749Z,100.00
